Issaquah, Washington
Current Conditions -  °F | °C
As of 5:53 PM on Saturday 25 Oct 2014 (Local Time) from KRNT Reporting Station
Overcast Overcast  
Wind Chill: 64°   Ceiling: 7500
Heat Index: 64°   Visibility: 10mi
Dew Point: 49°   Wind: 13mph
Humidity: 58%   Direction: 140°SE
Pressure: 29.26"   Gusts: 25mph
Location:  47.53°N, 122.03°W
Report Text: KRNT 260053Z 14011G22KT 10SM OVC075 18/09 A2926 RMK AO2 SLP913 T01780094
Loading
Personal Weather Stations






























Interactive Weather Map
Tropical Storm Tracking
New forecast layout! Learn more

10-Day Weather Forecast

Advertisements
Track Severe Weather on mobile